This is the latest recevied weather packets stored in our database for station/object IZ1BLA-10. If no packets are shown the sender has not sent any weather packets the latest 10 day(s).
| Time | Temp. | Humidity | Pressure | Rain* | Wind** | Luminosity | Snow |
|---|---|---|---|---|---|---|---|
| 1777517343 | 14.44° C | 78% | 1020.3 hPa | - | - | - | - |
| 1777516742 | 15.56° C | 75% | 1020.1 hPa | - | - | - | - |
| 1777516142 | 15.56° C | 76% | 1019.8 hPa | - | - | - | - |
| 1777515543 | 13.33° C | 87% | 1020.4 hPa | - | - | - | - |
| 1777514942 | 15° C | 85% | 1019.7 hPa | - | - | - | - |
| 1777514342 | 13.89° C | 92% | 1019.8 hPa | - | - | - | - |
| 1777513742 | 15.56° C | 80% | 1019.3 hPa | - | - | - | - |
| 1777513142 | 16.11° C | 77% | 1018.9 hPa | - | - | - | - |
| 1777512542 | 16.67° C | 76% | 1018.6 hPa | - | - | - | - |
| 1777511945 | 16.11° C | 79% | 1018.8 hPa | - | - | - | - |
| 1777510742 | 15.56° C | 81% | 1018.8 hPa | - | - | - | - |
| 1777510142 | 15.56° C | 80% | 1018.8 hPa | - | - | - | - |
| 1777509542 | 16.11° C | 78% | 1018.6 hPa | - | - | - | - |
| 1777508942 | 17.22° C | 65% | 1018.2 hPa | - | - | - | - |
| 1777508342 | 16.11° C | 72% | 1018.5 hPa | - | - | - | - |
| 1777507742 | 16.11° C | 68% | 1018.4 hPa | - | - | - | - |
| 1777507142 | 14.44° C | 74% | 1018.6 hPa | - | - | - | - |
| 1777506542 | 15° C | 72% | 1018.4 hPa | - | - | - | - |
| 1777505942 | 14.44° C | 71% | 1018.3 hPa | - | - | - | - |
| 1777505345 | 14.44° C | 73% | 1018.4 hPa | - | - | - | - |
| 1777504742 | 17.22° C | 62% | 1017.5 hPa | - | - | - | - |
| 1777504142 | 16.11° C | 68% | 1017.8 hPa | - | - | - | - |
| 1777503542 | 15.56° C | 69% | 1017.9 hPa | - | - | - | - |
| 1777502942 | 15.56° C | 72% | 1017.9 hPa | - | - | - | - |
| 1777502342 | 13.89° C | 79% | 1018.3 hPa | - | - | - | - |
* Rain since midnight (hover to see other rain measurements)
** Current wind speed in m/s (hover to see current wind gust speed)